Aviation Digital Data Service (ADDS)

Output produced by TAFs form (0143 UTC 20 January 2017)
found at http://aviationweather.gov/adds/tafs/
 
KPNE 200054Z 11003KT 10SM CLR 03/00 A3005 RMK AO2 SLP175 T00280000
KPNE 192329Z 2000/2024 32005KT P6SM FEW025 BKN250 
     FM201800 14005KT 4SM -RA BR BKN015